createdAt,value
2022-10-02T00:00:17.149Z,11.00
2022-10-02T00:03:11.992Z,11.03
2022-10-02T00:06:05.498Z,11.00
2022-10-02T00:08:56.248Z,11.08
2022-10-02T00:11:46.697Z,10.91
2022-10-02T00:14:38.707Z,10.84
2022-10-02T00:17:30.297Z,10.89
2022-10-02T00:20:19.274Z,10.88
2022-10-02T00:23:10.172Z,10.84
2022-10-02T00:26:02.228Z,10.84
2022-10-02T00:29:00.666Z,10.82
2022-10-02T00:31:57.960Z,10.86
2022-10-02T00:34:57.378Z,10.81
2022-10-02T00:37:50.391Z,10.91
2022-10-02T00:41:04.663Z,10.85
2022-10-02T00:44:07.148Z,10.84
2022-10-02T00:47:00.693Z,10.84
2022-10-02T00:50:15.819Z,10.79
2022-10-02T00:53:15.888Z,10.85
2022-10-02T00:56:16.763Z,10.82
2022-10-02T00:59:33.133Z,10.93
2022-10-02T01:02:53.334Z,10.88
2022-10-02T01:05:45.258Z,10.90
2022-10-02T01:08:32.780Z,11.06
2022-10-02T01:11:22.057Z,10.89
2022-10-02T01:14:09.153Z,11.00
2022-10-02T01:16:57.338Z,11.08
2022-10-02T01:19:43.977Z,11.05
2022-10-02T01:22:36.054Z,11.11
2022-10-02T01:25:24.283Z,11.06
2022-10-02T01:28:11.682Z,11.09
2022-10-02T01:31:03.846Z,11.10
2022-10-02T01:33:50.211Z,11.09
2022-10-02T01:36:37.531Z,11.02
2022-10-02T01:39:26.603Z,11.04
2022-10-02T01:42:15.134Z,11.06
2022-10-02T01:45:03.479Z,11.14
2022-10-02T01:47:58.274Z,11.05
2022-10-02T01:50:54.716Z,11.22
2022-10-02T01:53:48.470Z,11.12
2022-10-02T01:56:45.056Z,11.16
2022-10-02T01:59:46.821Z,11.19
2022-10-02T02:02:43.418Z,11.21
2022-10-02T02:05:40.376Z,11.21
2022-10-02T02:08:31.419Z,11.18
2022-10-02T02:11:20.190Z,11.12
2022-10-02T02:14:15.408Z,11.25
2022-10-02T02:17:12.444Z,11.20
2022-10-02T02:20:03.236Z,11.27
2022-10-02T02:22:52.957Z,11.19
2022-10-02T02:25:43.402Z,11.03
2022-10-02T02:28:32.506Z,11.23
2022-10-02T02:31:24.767Z,11.22
2022-10-02T02:34:16.402Z,11.13
2022-10-02T02:37:07.598Z,11.12
2022-10-02T02:39:59.092Z,11.22
2022-10-02T02:42:52.284Z,11.07
2022-10-02T02:45:43.751Z,11.10
2022-10-02T02:48:36.990Z,11.10
2022-10-02T02:51:28.745Z,11.09
2022-10-02T02:54:20.926Z,11.14
2022-10-02T02:57:10.389Z,11.07
2022-10-02T03:00:00.399Z,11.14
2022-10-02T03:02:47.510Z,11.03
2022-10-02T03:05:36.595Z,10.86
2022-10-02T03:08:28.273Z,10.82
2022-10-02T03:11:24.127Z,10.71
2022-10-02T03:14:28.588Z,10.74
2022-10-02T03:17:30.051Z,10.66
2022-10-02T03:20:23.905Z,10.48
2022-10-02T03:23:18.684Z,10.35
2022-10-02T03:26:15.064Z,10.42
2022-10-02T03:29:07.270Z,10.42
2022-10-02T03:31:55.796Z,10.30
2022-10-02T03:34:42.273Z,10.23
2022-10-02T03:37:29.967Z,10.31
2022-10-02T03:40:16.821Z,10.17
2022-10-02T03:43:05.153Z,10.16
2022-10-02T03:45:52.116Z,10.08
2022-10-02T03:48:38.994Z,10.18
2022-10-02T03:51:26.344Z,10.01
2022-10-02T03:54:17.845Z,10.04
2022-10-02T03:57:06.666Z,9.91
2022-10-02T04:00:02.778Z,9.79
2022-10-02T04:02:58.463Z,9.82
2022-10-02T04:05:51.231Z,9.83
2022-10-02T04:08:42.214Z,9.77
2022-10-02T04:11:34.646Z,9.79
2022-10-02T04:14:26.088Z,9.79
2022-10-02T04:17:21.138Z,9.75
2022-10-02T04:20:15.405Z,9.74
2022-10-02T04:23:09.648Z,9.71
2022-10-02T04:26:02.452Z,9.77
2022-10-02T04:28:53.826Z,9.74
2022-10-02T04:31:40.278Z,9.68
2022-10-02T04:34:29.517Z,9.68
2022-10-02T04:37:33.108Z,9.62
2022-10-02T04:40:36.403Z,9.69
2022-10-02T04:43:36.347Z,9.61
2022-10-02T04:46:47.168Z,9.61
2022-10-02T04:49:58.924Z,9.51
2022-10-02T04:53:12.258Z,9.56
2022-10-02T04:56:41.906Z,9.71
2022-10-02T04:59:41.160Z,9.70
2022-10-02T05:02:37.466Z,9.59
2022-10-02T05:05:35.390Z,9.67
2022-10-02T05:08:42.369Z,9.62
2022-10-02T05:11:41.440Z,9.60
2022-10-02T05:14:43.356Z,9.70
2022-10-02T05:17:46.689Z,9.67
2022-10-02T05:20:51.244Z,9.66
2022-10-02T05:24:02.490Z,9.66
2022-10-02T05:27:20.123Z,9.75
2022-10-02T05:30:11.122Z,9.69
2022-10-02T05:33:32.319Z,9.76
2022-10-02T05:36:39.267Z,9.81
2022-10-02T05:39:32.334Z,9.88
2022-10-02T05:42:27.271Z,9.97
2022-10-02T05:45:27.625Z,10.05
2022-10-02T05:48:20.830Z,10.03
2022-10-02T05:51:13.360Z,10.24
2022-10-02T05:54:08.567Z,10.20
2022-10-02T05:57:03.190Z,10.36
2022-10-02T06:00:01.004Z,10.34
2022-10-02T06:02:55.085Z,10.35
2022-10-02T06:05:50.491Z,10.41
2022-10-02T06:08:42.426Z,10.40
2022-10-02T06:11:34.772Z,10.41
2022-10-02T06:14:27.630Z,10.40
2022-10-02T06:17:21.750Z,10.55
2022-10-02T06:20:19.474Z,10.56
2022-10-02T06:23:11.785Z,10.69
2022-10-02T06:26:03.953Z,10.84
2022-10-02T06:28:57.323Z,10.81
2022-10-02T06:31:52.584Z,10.84
2022-10-02T06:34:44.558Z,10.89
2022-10-02T06:37:46.529Z,10.87
2022-10-02T06:40:47.265Z,10.95
2022-10-02T06:43:48.333Z,10.95
2022-10-02T06:46:50.619Z,10.98
2022-10-02T06:49:50.855Z,11.07
2022-10-02T06:52:48.064Z,11.15
2022-10-02T06:55:49.690Z,11.07
2022-10-02T06:58:52.550Z,11.35
2022-10-02T07:01:57.067Z,11.39
2022-10-02T07:05:01.033Z,11.63
2022-10-02T07:08:00.500Z,11.74
2022-10-02T07:10:56.003Z,11.76
2022-10-02T07:14:03.709Z,12.07
2022-10-02T07:17:22.064Z,12.28
2022-10-02T07:20:29.665Z,12.62
2022-10-02T07:23:35.215Z,12.60
2022-10-02T07:26:46.122Z,12.58
2022-10-02T07:29:41.191Z,12.57
2022-10-02T07:32:47.890Z,12.48
2022-10-02T07:35:46.284Z,12.38
2022-10-02T07:38:56.158Z,12.53
2022-10-02T07:42:01.805Z,12.50
2022-10-02T07:45:12.519Z,12.64
2022-10-02T07:48:26.683Z,12.61
2022-10-02T07:51:45.957Z,12.60
2022-10-02T07:54:47.940Z,12.75
2022-10-02T07:57:41.891Z,12.85
2022-10-02T08:00:32.627Z,12.82
2022-10-02T08:03:22.368Z,12.78
2022-10-02T08:06:10.772Z,12.84
2022-10-02T08:09:03.140Z,12.97
2022-10-02T08:11:54.332Z,13.19
2022-10-02T08:14:43.022Z,13.18
2022-10-02T08:17:35.613Z,13.19
2022-10-02T08:20:29.624Z,13.25
2022-10-02T08:23:23.386Z,13.47
2022-10-02T08:26:16.147Z,13.50
2022-10-02T08:29:07.391Z,13.74
2022-10-02T08:31:54.155Z,13.82
2022-10-02T08:34:41.988Z,13.90
2022-10-02T08:37:37.158Z,14.05
2022-10-02T08:41:09.163Z,13.90
2022-10-02T08:44:26.093Z,13.91
2022-10-02T08:48:06.532Z,13.77
2022-10-02T08:51:22.672Z,13.65
2022-10-02T08:54:50.606Z,13.43
2022-10-02T08:58:05.338Z,13.49
2022-10-02T09:01:05.058Z,13.51
2022-10-02T09:04:23.795Z,13.70
2022-10-02T09:07:43.602Z,13.80
2022-10-02T09:11:05.349Z,13.91
2022-10-02T09:14:31.127Z,13.88
2022-10-02T09:17:36.984Z,13.93
2022-10-02T09:21:11.866Z,14.05
2022-10-02T09:24:38.597Z,14.18
2022-10-02T09:27:59.831Z,14.25
2022-10-02T09:31:31.479Z,14.43
2022-10-02T09:34:53.602Z,14.40
2022-10-02T09:38:05.556Z,14.49
2022-10-02T09:41:13.437Z,14.67
2022-10-02T09:44:35.393Z,15.07
2022-10-02T09:48:05.284Z,15.49
2022-10-02T09:51:20.322Z,15.65
2022-10-02T09:54:32.398Z,15.97
2022-10-02T09:57:48.547Z,16.19
2022-10-02T10:01:15.530Z,15.98
2022-10-02T10:04:37.993Z,15.65
2022-10-02T10:08:05.867Z,15.33
2022-10-02T10:11:20.175Z,14.62
2022-10-02T10:14:31.259Z,14.49
2022-10-02T10:17:59.700Z,14.09
2022-10-02T10:21:08.905Z,13.74
2022-10-02T10:24:21.072Z,13.58
2022-10-02T10:27:43.344Z,13.47
2022-10-02T10:30:56.532Z,13.54
2022-10-02T10:34:21.108Z,13.59
2022-10-02T10:37:49.878Z,13.59
2022-10-02T10:40:44.162Z,13.61
2022-10-02T10:44:04.543Z,13.52
2022-10-02T10:47:24.522Z,13.38
2022-10-02T10:50:29.806Z,13.36
2022-10-02T10:53:49.620Z,13.33
2022-10-02T10:56:38.998Z,13.49
2022-10-02T10:59:56.304Z,13.56
2022-10-02T11:02:54.824Z,13.76
2022-10-02T11:06:17.672Z,13.86
2022-10-02T11:09:38.583Z,14.19
2022-10-02T11:12:53.772Z,14.37
2022-10-02T11:16:13.167Z,14.29
2022-10-02T11:19:32.667Z,14.38
2022-10-02T11:22:38.372Z,14.63
2022-10-02T11:25:47.077Z,14.94
2022-10-02T11:29:15.940Z,14.92
2022-10-02T11:32:19.550Z,15.08
2022-10-02T11:35:23.568Z,15.06
2022-10-02T11:38:27.166Z,14.92
2022-10-02T11:41:35.346Z,14.84
2022-10-02T11:44:37.581Z,14.77
2022-10-02T11:48:10.323Z,14.70
2022-10-02T11:51:38.841Z,14.73
2022-10-02T11:54:38.990Z,14.59
2022-10-02T11:57:39.446Z,14.65
2022-10-02T12:00:57.012Z,14.67
2022-10-02T12:03:58.513Z,14.79
2022-10-02T12:07:06.745Z,14.55
2022-10-02T12:10:14.995Z,14.63
2022-10-02T12:13:47.287Z,14.33
2022-10-02T12:16:51.739Z,14.30
2022-10-02T12:20:15.987Z,14.20
2022-10-02T12:23:36.477Z,14.07
2022-10-02T12:26:57.829Z,14.08
2022-10-02T12:29:56.100Z,14.24
2022-10-02T12:33:11.652Z,14.45
2022-10-02T12:36:12.420Z,14.57
2022-10-02T12:39:07.461Z,14.75
2022-10-02T12:42:16.734Z,14.87
2022-10-02T12:45:20.710Z,15.01
2022-10-02T12:48:23.379Z,14.90
2022-10-02T12:51:36.016Z,15.05
2022-10-02T12:54:51.499Z,14.75
2022-10-02T12:57:55.491Z,14.70
2022-10-02T13:01:05.243Z,14.67
2022-10-02T13:04:22.452Z,14.64
2022-10-02T13:07:56.067Z,14.63
2022-10-02T13:10:48.481Z,14.50
2022-10-02T13:14:26.476Z,14.51
2022-10-02T13:17:27.012Z,14.63
2022-10-02T13:20:22.653Z,14.72
2022-10-02T13:23:22.655Z,15.01
2022-10-02T13:26:21.306Z,15.09
2022-10-02T13:29:20.772Z,15.29
2022-10-02T13:32:22.913Z,15.39
2022-10-02T13:35:30.245Z,15.37
2022-10-02T13:38:40.135Z,15.26
2022-10-02T13:41:39.546Z,15.31
2022-10-02T13:44:36.925Z,15.27
2022-10-02T13:47:40.025Z,15.22
2022-10-02T13:50:35.728Z,15.28
2022-10-02T13:53:42.361Z,15.46
2022-10-02T13:56:37.914Z,15.58
2022-10-02T13:59:51.859Z,15.69
2022-10-02T14:03:05.988Z,15.57
2022-10-02T14:05:58.173Z,15.34
2022-10-02T14:09:00.983Z,15.42
2022-10-02T14:12:05.228Z,15.34
2022-10-02T14:15:10.392Z,15.40
2022-10-02T14:18:24.190Z,15.36
2022-10-02T14:21:21.807Z,15.25
2022-10-02T14:24:48.684Z,15.26
2022-10-02T14:28:12.778Z,15.25
2022-10-02T14:31:14.108Z,15.25
2022-10-02T14:34:25.929Z,15.34
2022-10-02T14:37:33.905Z,15.48
2022-10-02T14:40:21.368Z,15.33
2022-10-02T14:43:26.315Z,15.15
2022-10-02T14:46:33.524Z,15.12
2022-10-02T14:49:58.780Z,15.05
2022-10-02T14:53:10.291Z,15.07
2022-10-02T14:56:30.923Z,15.03
2022-10-02T14:59:37.159Z,14.85
2022-10-02T15:03:04.693Z,14.90
2022-10-02T15:06:22.095Z,14.62
2022-10-02T15:09:19.441Z,14.47
2022-10-02T15:12:15.321Z,14.36
2022-10-02T15:15:10.253Z,14.24
2022-10-02T15:18:17.923Z,14.07
2022-10-02T15:21:27.133Z,13.97
2022-10-02T15:24:33.977Z,13.83
2022-10-02T15:27:24.694Z,13.68
2022-10-02T15:30:20.677Z,13.75
2022-10-02T15:33:16.785Z,13.64
2022-10-02T15:36:20.418Z,13.47
2022-10-02T15:39:40.041Z,13.49
2022-10-02T15:42:57.985Z,13.25
2022-10-02T15:46:12.376Z,13.21
2022-10-02T15:49:02.505Z,13.26
2022-10-02T15:52:03.753Z,13.19
2022-10-02T15:55:01.693Z,13.10
2022-10-02T15:58:08.655Z,13.06
2022-10-02T16:01:17.889Z,12.90
2022-10-02T16:04:13.393Z,12.91
2022-10-02T16:07:35.608Z,12.81
2022-10-02T16:10:32.073Z,12.84
2022-10-02T16:13:41.402Z,12.77
2022-10-02T16:17:04.530Z,12.72
2022-10-02T16:20:20.331Z,12.79
2022-10-02T16:23:23.678Z,12.76
2022-10-02T16:26:25.011Z,12.74
2022-10-02T16:29:27.555Z,12.77
2022-10-02T16:32:25.955Z,12.86
2022-10-02T16:35:45.625Z,12.85
2022-10-02T16:38:50.974Z,12.93
2022-10-02T16:41:56.416Z,12.78
2022-10-02T16:45:23.944Z,12.68
2022-10-02T16:48:14.876Z,12.66
2022-10-02T16:51:13.463Z,12.49
2022-10-02T16:54:10.658Z,12.35
2022-10-02T16:57:06.052Z,12.25
2022-10-02T16:59:59.908Z,12.28
2022-10-02T17:02:53.569Z,12.23
2022-10-02T17:05:50.445Z,12.17
2022-10-02T17:08:44.499Z,12.07
2022-10-02T17:11:35.772Z,11.96
2022-10-02T17:14:31.378Z,11.87
2022-10-02T17:17:25.056Z,11.68
2022-10-02T17:20:18.928Z,11.66
2022-10-02T17:23:16.429Z,11.58
2022-10-02T17:26:08.882Z,11.58
2022-10-02T17:29:01.288Z,11.50
2022-10-02T17:31:54.893Z,11.53
2022-10-02T17:34:50.017Z,11.50
2022-10-02T17:37:57.173Z,11.45
2022-10-02T17:40:55.277Z,11.43
2022-10-02T17:43:53.717Z,11.39
2022-10-02T17:47:11.292Z,11.32
2022-10-02T17:50:14.031Z,11.31
2022-10-02T17:53:32.429Z,11.29
2022-10-02T17:56:37.425Z,11.22
2022-10-02T17:59:51.012Z,11.16
2022-10-02T18:03:11.514Z,11.09
2022-10-02T18:06:12.054Z,11.08
2022-10-02T18:09:38.646Z,11.08
2022-10-02T18:12:42.529Z,11.09
2022-10-02T18:15:56.299Z,11.09
2022-10-02T18:19:05.989Z,11.06
2022-10-02T18:22:12.263Z,11.05
2022-10-02T18:25:19.178Z,10.90
2022-10-02T18:28:29.118Z,11.08
2022-10-02T18:31:53.965Z,11.12
2022-10-02T18:34:56.927Z,11.06
2022-10-02T18:38:12.351Z,11.14
2022-10-02T18:41:22.996Z,11.10
2022-10-02T18:44:20.929Z,11.16
2022-10-02T18:47:21.410Z,11.20
2022-10-02T18:50:29.311Z,11.16
2022-10-02T18:53:34.644Z,11.19
2022-10-02T18:56:31.852Z,11.29
2022-10-02T18:59:28.225Z,11.29
2022-10-02T19:02:29.999Z,11.34
2022-10-02T19:05:26.552Z,11.36
2022-10-02T19:08:21.977Z,11.38
2022-10-02T19:11:18.538Z,11.41
2022-10-02T19:14:15.159Z,11.45
2022-10-02T19:17:04.746Z,11.45
2022-10-02T19:19:51.588Z,11.39
2022-10-02T19:22:39.852Z,11.34
2022-10-02T19:25:27.933Z,11.33
2022-10-02T19:28:20.053Z,11.24
2022-10-02T19:31:11.389Z,11.23
2022-10-02T19:34:02.310Z,11.26
2022-10-02T19:36:52.200Z,11.29
2022-10-02T19:39:44.521Z,11.33
2022-10-02T19:42:39.363Z,11.32
2022-10-02T19:45:28.901Z,11.30
2022-10-02T19:48:19.143Z,11.22
2022-10-02T19:51:08.619Z,11.36
2022-10-02T19:54:01.123Z,11.31
2022-10-02T19:56:48.977Z,11.28
2022-10-02T19:59:41.958Z,11.23
2022-10-02T20:02:35.881Z,11.31
2022-10-02T20:05:24.656Z,11.34
2022-10-02T20:08:17.550Z,11.31
2022-10-02T20:11:10.441Z,11.29
2022-10-02T20:14:02.550Z,11.30
2022-10-02T20:17:07.429Z,11.29
2022-10-02T20:19:58.203Z,11.21
2022-10-02T20:22:49.353Z,11.28
2022-10-02T20:25:42.217Z,11.32
2022-10-02T20:28:36.375Z,11.27
2022-10-02T20:31:39.756Z,11.35
2022-10-02T20:34:32.479Z,11.31
2022-10-02T20:37:23.741Z,11.27
2022-10-02T20:40:17.083Z,11.25
2022-10-02T20:43:09.691Z,11.27
2022-10-02T20:46:14.727Z,11.28
2022-10-02T20:49:25.061Z,11.24
2022-10-02T20:52:42.132Z,11.08
2022-10-02T20:55:35.074Z,11.05
2022-10-02T20:58:50.166Z,11.11
2022-10-02T21:01:46.188Z,11.03
2022-10-02T21:04:56.854Z,10.99
2022-10-02T21:08:01.805Z,11.01
2022-10-02T21:11:14.379Z,10.95
2022-10-02T21:14:22.957Z,10.98
2022-10-02T21:17:51.796Z,10.96
2022-10-02T21:21:30.372Z,11.08
2022-10-02T21:24:44.939Z,11.06
2022-10-02T21:28:09.978Z,10.96
2022-10-02T21:31:08.322Z,10.95
2022-10-02T21:34:09.368Z,11.09
2022-10-02T21:36:59.762Z,10.94
2022-10-02T21:40:26.414Z,10.94
2022-10-02T21:43:45.234Z,10.92
2022-10-02T21:46:58.700Z,10.99
2022-10-02T21:50:23.591Z,10.92
2022-10-02T21:53:53.706Z,10.93
2022-10-02T21:57:06.871Z,10.84
2022-10-02T22:00:09.559Z,10.83
2022-10-02T22:03:53.066Z,10.81
2022-10-02T22:06:54.401Z,10.88
2022-10-02T22:09:50.134Z,10.86
2022-10-02T22:12:49.963Z,10.80
2022-10-02T22:15:45.544Z,10.70
2022-10-02T22:18:46.532Z,10.77
2022-10-02T22:21:50.788Z,10.68
2022-10-02T22:24:58.216Z,10.74
2022-10-02T22:28:14.708Z,10.77
2022-10-02T22:31:33.471Z,10.66
2022-10-02T22:34:37.074Z,10.71
2022-10-02T22:37:54.969Z,10.69
2022-10-02T22:40:47.941Z,10.72
2022-10-02T22:43:44.712Z,10.65
2022-10-02T22:46:41.462Z,10.62
2022-10-02T22:49:36.065Z,10.65
2022-10-02T22:52:28.971Z,10.59
2022-10-02T22:55:22.782Z,10.64
2022-10-02T22:58:16.781Z,10.51
2022-10-02T23:01:28.752Z,10.61
2022-10-02T23:04:28.837Z,10.58
2022-10-02T23:07:20.958Z,10.57
2022-10-02T23:10:20.670Z,10.51
2022-10-02T23:13:15.155Z,10.49
2022-10-02T23:16:07.099Z,10.46
2022-10-02T23:19:02.023Z,10.52
2022-10-02T23:21:54.657Z,10.44
2022-10-02T23:24:49.784Z,10.45
2022-10-02T23:27:42.099Z,10.41
2022-10-02T23:30:31.754Z,10.46
2022-10-02T23:33:23.630Z,10.32
2022-10-02T23:36:24.289Z,10.36
2022-10-02T23:39:18.097Z,10.42
2022-10-02T23:42:12.005Z,10.37
2022-10-02T23:45:04.229Z,10.30
2022-10-02T23:48:00.730Z,10.38
2022-10-02T23:50:59.280Z,10.35
2022-10-02T23:54:12.482Z,10.29
2022-10-02T23:57:32.740Z,10.33
